Language selection

Weather shortcuts

Strait of Belle Isle - western half: Past 24 Hour Conditions

 

Kangiqsualujjuaq Airport

04:00 PM EDT 18 July 2024
Disclaimer

This table is a summary of hourly weather conditions for the past 24 hours.
Please note that these observations might not always be representative of weather conditions over their associated marine area.

Date / Time
(EDT)
Wind(knots) Conditions Visibility(km) Pressure(kPa) Air tempC) Relative humidity(%) Dew pointC)
18 July 2024
16:00 W 9 N/A N/A 100.5 16 69 10
15:00 NW 9 N/A N/A 100.5 18 68 12
14:00 NW 5 N/A N/A 100.5 18 65 11
13:00 SSE 4 N/A N/A 100.5 20 53 10
12:00 SE 5 N/A N/A 100.5 20 54 10
11:00 ESE 10 N/A N/A 100.5 18 62 11
10:00 SSE 12 N/A N/A 100.6 17 71 11
9:00 SE 11 N/A N/A 100.6 15 79 11
8:00 SE 10 gusts 15 N/A N/A 100.6 14 83 11
7:00 SE 7 N/A N/A 100.6 12 91 11
6:00 SE 6 N/A N/A 100.6 11 91 10
5:00 SE 8 N/A N/A 100.6 11 91 10
4:00 SE 7 N/A N/A 100.6 11 91 10
3:00 SSE 11 N/A N/A 100.6 11 92 10
2:00 SSE 11 N/A N/A 100.6 11 92 10
1:00 SSE 10 N/A N/A 100.6 11 90 10
0:00 SE 10 N/A N/A 100.7 11 90 10
17 July 2024
23:00 SE 6 N/A N/A 100.7 12 89 10
22:00 SE 5 N/A N/A 100.7 11 92 10
21:00 SE 5 N/A N/A 100.8 12 92 10
20:00 calm N/A N/A 100.8 11 94 10
19:00 NW 3 N/A N/A 100.8 10 93 9
18:00 SE 2 N/A N/A 100.8 12 92 10
17:00 NW 3 N/A N/A 100.8 10 92 9
16:00 WNW 4 N/A N/A 100.8 12 84 9

Zoom-in to make a selection

Map of Atlantic - Labrador marine weather areas Kangiqsualujjuaq Airport Cape Kakkiviak Cape Kiglapait Cartwright Airport CFB Goose Bay Hopedale Mary's Harbour Nain Airport Makkovik Airport Saglek Tukialik Bay
Legend:
buoy Buoy
land station Land Station

Atlantic - Labrador Area

Another Region

Features

New Predicting and Alerting Coastal Flooding Program

Find out about coastal flooding coverage, forecasts and warnings in your region

Date modified: